Airfield :
LOGIN :

Register | Disclaimer

   EN    FR    IT 

 










Legend :    VFR   Marginal VFR   IFR   Intensive IFR   Very Intensive IFR
Visi :
Ceiling :
>= 8 km
>= 3000ft
5 to 8 km
1000 to 3000 ft
1500m to 5 km
500 to 1000 ft
800 to 1500m
200 to 500 ft
< 800m
< 200 ft
Symbols :   Thunderstorms  Fog  Heavy snow  Heavy precipitations  Wind > 20 kt
SIGMETs :     Misc.  Thunderstorms  Icing  Turbulence  Mountain Waves  Volcanic Ashes






- Airport Elevation : 156 ft
- IATA code : MLN


GEML - Melilla

CURRENT METAR :
  • 241800Z 16004KT 110V190 CAVOK 16/12 Q1024

EXPIRED METARs :
  • 241730Z 14004KT 110V170 CAVOK 17/12 Q1024
  • 241700Z 13004KT 080V170 CAVOK 18/12 Q1024
  • 241630Z 08003KT 020V120 CAVOK 18/12 Q1024
  • 241600Z 08003KT 020V170 CAVOK 18/12 Q1025
  • 241530Z 29004KT 240V010 CAVOK 19/11 Q1025

TAF TAF GEML
Valid from the 24 at 15:00 until the 25 at 15:00 UTC


241400Z 2415/2515 27004KT CAVOK TX21/2513Z TN12/2507Z
PROB30
TEMPO 2421/2506 3000 BR BCFG



MET'MAP, your aeronautical weather chart ! - Copyright ORBIFLY December 2007 - Disclaimer

ORBIFLY MET'MAP TEAM :

Programming & Development : Alexandra Zaïnal
Concept & original design : Baudouin d'Aumeries
Assistance for programming : Marc-Olivier Méhu
Technical & hardware support : Manuel Goepfert

Contact : metmap@orbifly.com




SOURCES & CREDITS :

   NOAA